Flight Track Log - Related Links

Times and Time Zones

All times are in EDT time to prevent confusion due to time zone crossing. See the SWA1464 flight status page for this flight to view local times or setup timezone preferences in your user account.

Time Position Orientation Groundspeed Altitude Reporting Facility
EDT Latitude Longitude Course Direction KTS MPH feet Rate Location/Type
Sun 11:48:00 PM 41.7500 -87.6833 121° Southeast 200 230 3,800  Level Chicago TRACON
Sun 11:49:06 PM 41.7167 -87.7333 228° Southwest 233 268 7,500 2,902 Climbing Chicago TRACON
Sun 11:51:35 PM 41.7694 -87.9606 287° West 310 357 14,200 2,857 Climbing Chicago Center
Sun 11:52:36 PM 41.7700 -88.0900 270° West 344 396 17,500 2,975 Climbing Chicago Center
Sun 11:53:36 PM 41.7692 -88.2253 270° West 363 418 20,200 2,628 Climbing Chicago Center
Sun 11:54:37 PM 41.7667 -88.3661 269° West 377 434 22,800 1,388 Climbing Chicago Center
Sun 11:55:37 PM 41.7625 -88.5122 268° West 392 451 23,000 1,041 Climbing Chicago Center
Sun 11:56:38 PM 41.7594 -88.6594 268° West 399 459 24,900 2,083 Climbing Chicago Center
Sun 11:57:38 PM 41.7558 -88.8081 268° West 403 464 27,200 2,132 Climbing Chicago Center
Sun 11:58:39 PM 41.7525 -88.9611 268° West 412 474 29,200 2,213 Climbing Chicago Center
Sun 11:59:40 PM 41.7492 -89.1158 268° West 419 482 31,700 2,231 Climbing Chicago Center
Mon 12:00:40 AM 41.7453 -89.2675 268° West 413 475 33,700 1,835 Climbing Chicago Center
Mon 12:01:41 AM 41.7414 -89.4172 268° West 406 467 35,400 1,140 Climbing Chicago Center
Mon 12:02:41 AM 41.7372 -89.5847 268° West 409 471 36,000 298 Climbing Chicago Center
Mon 12:03:42 AM 41.7325 -89.7372 268° West 411 473 36,000  Level Chicago Center
Mon 12:04:42 AM 41.7275 -89.8903 268° West 414 476 36,000  Level Chicago Center
Mon 12:05:43 AM 41.7236 -90.0419 268° West 411 473 36,000  Level Chicago Center
Mon 12:06:43 AM 41.7181 -90.1956 267° West 413 475 36,000  Level Chicago Center
Mon 12:07:44 AM 41.7111 -90.3536 267° West 425 489 36,000  Level Chicago Center
Mon 12:08:44 AM 41.7056 -90.5081 267° West 419 482 36,000  Level Chicago Center
Mon 12:09:44 AM 41.6997 -90.6522 267° West 414 476 36,000  Level Chicago Center
Mon 12:10:45 AM 41.6944 -90.8050 267° West 413 475 36,000  Level Chicago Center
Mon 12:11:45 AM 41.6872 -90.9878 267° West 411 473 36,000  Level Chicago Center
Mon 12:12:45 AM 41.6800 -91.1369 266° West 407 468 36,000  Level Chicago Center
Mon 12:13:46 AM 41.6747 -91.2847 267° West 401 461 36,000  Level Chicago Center
Mon 12:14:46 AM 41.6678 -91.4336 266° West 403 464 36,000  Level Chicago Center
Mon 12:15:46 AM 41.6600 -91.5822 266° West 402 463 36,000  Level Chicago Center
Mon 12:16:47 AM 41.6542 -91.7286 267° West 399 459 36,000  Level Chicago Center
Mon 12:17:47 AM 41.6464 -91.8764 266° West 400 460 36,000  Level Chicago Center
Mon 12:18:47 AM 41.6392 -92.0228 266° West 398 458 36,000  Level Chicago Center
Mon 12:19:48 AM 41.6308 -92.1711 266° West 401 461 36,000  Level Chicago Center
Mon 12:20:48 AM 41.6231 -92.3175 266° West 398 458 36,000  Level Chicago Center
Mon 12:21:48 AM 41.6147 -92.4639 266° West 397 457 36,000  Level Chicago Center
Mon 12:22:49 AM 41.6072 -92.6092 266° West 396 456 36,000  Level Chicago Center
Mon 12:23:20 AM 41.6019 -92.6939 265° West 395 455 36,000  Level Minneapolis Center
Mon 12:24:21 AM 41.5936 -92.8411 266° West 398 458 36,000  Level Minneapolis Center
Mon 12:25:21 AM 41.5858 -92.9892 266° West 402 463 36,000  Level Minneapolis Center
Mon 12:26:21 AM 41.5769 -93.1392 266° West 406 467 36,000  Level Minneapolis Center
Mon 12:27:22 AM 41.5672 -93.2906 265° West 410 472 36,000  Level Minneapolis Center
Mon 12:28:22 AM 41.5569 -93.4422 265° West 414 476 36,000  Level Minneapolis Center
Mon 12:29:22 AM 41.5489 -93.5900 266° West 406 467 36,000  Level Minneapolis Center
Mon 12:30:23 AM 41.5394 -93.7372 265° West 403 464 36,000 -992 Level Minneapolis Center
Mon 12:31:23 AM 41.5297 -93.8858 265° West 404 465 34,000 -2,350 Descending Minneapolis Center
Mon 12:32:23 AM 41.5192 -94.0314 265° West 400 460 31,300 -2,777 Descending Minneapolis Center
Mon 12:33:24 AM 41.5078 -94.1783 264° West 401 461 28,400 -2,975 Descending Minneapolis Center
Mon 12:34:24 AM 41.5169 -94.3386 274° West 375 432 25,300 -2,579 Descending Minneapolis Center
Mon 12:35:25 AM 41.5253 -94.4781 275° West 376 433 23,200 -2,083 Descending Minneapolis Center
Mon 12:36:25 AM 41.5375 -94.6128 277° West 368 423 21,100 -2,100 Descending Minneapolis Center
Mon 12:37:25 AM 41.5456 -94.7433 275° West 356 410 19,000 -1,884 Descending Minneapolis Center
Mon 12:38:26 AM 41.5661 -94.8706 282° West 345 397 17,300 -1,686 Descending Minneapolis Center
Mon 12:39:26 AM 41.5811 -94.9897 280° West 335 386 15,600 -1,750 Descending Minneapolis Center
Mon 12:40:26 AM 41.5819 -95.1058 271° West 324 373 13,800 -1,835 Descending Minneapolis Center
Mon 12:41:27 AM 41.5531 -95.2153 251° West 319 367 11,900 -1,686 Descending Minneapolis Center
Mon 12:42:27 AM 41.5269 -95.3244 252° West 313 360 10,400 -1,400 Descending Minneapolis Center
Mon 12:43:27 AM 41.5017 -95.4256 252° West 303 349 9,100 -1,537 Descending Minneapolis Center
Mon 12:44:28 AM 41.4797 -95.5208 253° West 287 330 7,300 -1,537 Descending Minneapolis Center
Mon 12:45:28 AM 41.4581 -95.6119 252° West 273 314 6,000 -1,403 Descending Minneapolis Center
Mon 12:46:32 AM 41.4342 -95.7200 254° West 257 296 4,400 -1,438 Descending Minneapolis Center
Mon 12:47:29 AM 41.4128 -95.7928 249° West 260 299 3,100 -1,026 Descending Minneapolis Center
Mon 12:48:29 AM 41.3914 -95.8789 252° West 254 292 2,400 -353 Descending Minneapolis Center
Mon 12:49:28 AM 41.3703 -95.9525 249° West 165 190 2,400 -353 Level Minneapolis Center
Mon 12:50:28 AM 41.3378 -95.9369 160° South 119 137 1,700 -639 Descending Minneapolis Center
Mon 12:51:30 AM 41.3064 -95.8997 138° Southeast 146 168 1,100 -581 Descending Minneapolis Center
Mon 12:53:00 AM 41.3032 -95.8941 127° Southeast  Level Estimated

Login

Don't have an account? Register now (free) for customized features, flight alerts, and more!